Latest Weather Observations for Cooktown

IDQ60801

Issued at 11:35 pm EST Wednesday 16 April 2014 (issued every 30 minutes, with the page automatically refreshed every 10 minutes)

About weather observations | Map of weather stations | Latest weather observations for QLD | Other Formats
Station Details ID: 031209 Name: COOKTOWN AIRPORT Lat: -15.45 Lon: 145.19 Height: 4.8 m
Data from the previous 72 hours. | See also: Recent months at Cooktown
Date/Time
EST
Temp
°C
App
Temp
°C
Dew
Point
Rel
Hum
%
Delta-T
°C
Wind Press
QNH
hPa
Press
MSL
hPa
Rain
since 9 am
mm
Dir
 
Spd
km/h
Gust
km/h
Spd
kts
Gust
kts
16/11:30pm 26.6 29.3 23.4 82 2.2 SE 15 26 8 14 1012.9 - 0.0
16/11:26pm 26.7 28.9 23.3 81 2.3 SE 17 26 9 14 1012.9 - 0.0
16/11:00pm 26.6 29.1 23.8 84 1.9 SE 17 26 9 14 1013.2 - 0.0
16/10:57pm 26.7 29.2 23.8 84 2.0 ESE 17 28 9 15 1013.2 - 0.0
16/10:30pm 26.7 29.0 23.5 82 2.2 ESE 17 24 9 13 1013.3 - 0.0
16/10:22pm 26.8 28.8 23.0 79 2.6 ESE 17 24 9 13 1013.3 - 0.0
16/10:00pm 26.6 28.9 23.4 82 2.2 ESE 17 26 9 14 1013.3 - 0.0
16/09:30pm 26.7 29.3 23.3 81 2.3 ESE 15 26 8 14 1013.2 - 0.0
16/09:17pm 26.7 29.2 23.2 81 2.4 SE 15 32 8 17 1013.1 - 0.0
16/09:16pm 26.6 28.8 23.2 81 2.3 SE 17 32 9 17 1013.1 - 0.0
16/09:00pm 26.6 29.6 23.4 82 2.2 ESE 13 26 7 14 1013.1 1012.9 0.0
16/08:33pm 26.8 28.8 23.0 79 2.6 SE 17 26 9 14 1012.8 - 0.0
16/08:30pm 26.6 28.7 23.1 81 2.4 SE 17 26 9 14 1012.8 - 0.0
16/08:00pm 26.5 29.3 23.0 81 2.4 SE 13 20 7 11 1012.4 - 0.0
16/07:44pm 26.6 29.0 22.9 80 2.5 SE 15 24 8 13 1012.3 - 0.0
16/07:30pm 26.7 28.7 23.0 80 2.5 SE 17 26 9 14 1012.1 - 0.0
16/07:00pm 26.6 29.5 23.1 81 2.4 SE 13 22 7 12 1011.7 - 0.0
16/06:30pm 26.6 29.0 22.9 80 2.5 SE 15 24 8 13 1011.6 - 0.0
16/06:00pm 26.8 28.6 22.5 77 2.9 SE 17 30 9 16 1011.1 1011.0 0.0
16/05:30pm 27.0 28.8 22.6 77 3.0 SE 17 26 9 14 1010.8 - 0.0
16/05:00pm 27.2 29.0 22.5 75 3.2 ESE 17 26 9 14 1010.8 - 0.0
16/04:30pm 27.4 28.5 22.4 74 3.4 ESE 20 32 11 17 1010.7 - 0.0
16/04:00pm 27.8 29.0 22.5 73 3.6 SE 20 32 11 17 1010.6 - 0.0
16/03:30pm 28.4 30.2 22.5 70 4.0 SE 17 26 9 14 1010.5 - 0.0
16/03:00pm 28.2 29.2 22.8 72 3.7 ESE 22 37 12 20 1010.7 1010.6 0.0
16/02:30pm 28.6 28.8 22.1 68 4.4 ESE 24 35 13 19 1010.9 - 0.0
16/02:00pm 28.8 30.1 23.4 72 3.7 ESE 22 33 12 18 1011.2 - 0.0
16/01:30pm 28.5 29.8 22.3 69 4.2 SE 19 30 10 16 1011.5 - 0.0
16/01:00pm 27.8 29.1 22.6 73 3.5 ESE 20 28 11 15 1011.8 - 0.0
16/12:30pm 28.0 28.5 21.9 69 4.1 SE 22 32 12 17 1012.1 - 0.0
16/12:00pm 27.8 28.5 22.3 72 3.7 ESE 22 35 12 19 1012.5 1012.4 0.0
16/11:30am 28.2 28.6 22.4 71 3.9 ESE 24 46 13 25 1012.8 - 0.0
16/11:00am 28.6 30.0 23.5 74 3.5 ESE 22 32 12 17 1013.1 - 0.0
16/10:30am 27.7 28.9 23.2 76 3.1 SE 22 35 12 19 1013.5 - 0.0
16/10:00am 28.9 30.8 23.5 72 3.7 ESE 19 28 10 15 1013.7 - 0.0
16/09:30am 27.5 28.6 23.1 77 3.0 SE 22 33 12 18 1013.4 - 0.0
16/09:00am 27.5 29.2 23.4 78 2.8 SE 20 28 11 15 1013.2 1013.0 46.2
16/08:44am 27.7 29.9 23.9 80 2.6 SE 19 - 10 - - 1012.8 -
16/08:35am 27.3 29.8 23.8 81 2.4 SE 17 28 9 15 1012.9 - 46.2
16/08:30am 27.7 30.2 23.8 79 2.7 ESE 17 28 9 15 1012.9 - 46.2
16/08:13am 27.4 30.9 24.2 83 2.2 SE 13 26 7 14 1012.8 - 46.2
16/08:00am 27.2 30.0 23.7 81 2.4 SE 15 22 8 12 1012.8 - 46.2
16/07:30am 26.9 29.8 23.2 80 2.5 ESE 13 17 7 9 1012.6 - 46.2
16/07:00am 25.9 28.8 23.1 84 1.9 ESE 13 17 7 9 1012.4 - 46.2
16/06:30am 25.7 28.5 23.0 85 1.8 ESE 13 19 7 10 1012.0 - 46.2
16/06:00am 25.7 29.2 22.9 84 1.9 SE 9 15 5 8 1011.7 1011.6 46.2
16/05:30am 25.8 28.9 22.8 83 2.0 ESE 11 19 6 10 1011.5 - 46.2
16/05:00am 25.7 28.8 22.9 84 1.9 ESE 11 17 6 9 1011.2 - 46.2
16/04:30am 25.8 28.2 23.0 84 1.9 ESE 15 24 8 13 1011.2 - 46.2
16/04:00am 25.8 28.2 23.0 84 1.9 ESE 15 20 8 11 1011.1 - 46.2
16/03:30am 25.5 28.7 23.1 86 1.6 ESE 11 17 6 9 1011.1 - 46.2
16/03:00am 25.4 28.1 22.9 86 1.7 ESE 13 17 7 9 1011.3 1011.2 46.2
16/02:30am 25.3 28.4 22.8 86 1.7 SE 11 13 6 7 1011.6 - 46.2
16/02:00am 25.1 28.1 22.7 86 1.6 SE 11 17 6 9 1011.6 - 46.2
16/01:30am 25.1 28.1 22.6 86 1.7 SE 11 15 6 8 1012.0 - 46.2
16/01:00am 24.7 27.6 22.5 87 1.5 ESE 11 17 6 9 1012.3 - 46.2
16/12:30am 25.2 28.2 22.7 86 1.7 ESE 11 17 6 9 1012.7 - 46.2
16/12:00am 24.9 29.2 23.6 92 0.9 ESE 7 13 4 7 1012.9 - 46.2
 
Date/Time
EST
Temp
°C
App
Temp
°C
Dew
Point
Rel
Hum
%
Delta-T
°C
Wind Press
QNH
hPa
Press
MSL
hPa
Rain
since 9 am
mm
Dir
 
Spd
km/h
Gust
km/h
Spd
kts
Gust
kts
15/11:51pm 24.7 29.2 23.7 94 0.7 ESE 6 7 3 4 1013.1 - 46.2
15/11:30pm 24.7 28.9 23.5 93 0.8 E 7 13 4 7 1013.2 - 46.2
15/11:15pm 24.5 29.7 23.5 94 0.7 SE 2 7 1 4 1013.3 - 46.2
15/11:00pm 24.5 30.1 23.6 95 0.6 CALM 0 4 0 2 1013.4 - 46.2
15/10:30pm 24.3 28.4 23.3 94 0.7 ESE 7 9 4 5 1013.5 - 45.8
15/10:00pm 24.3 28.2 23.0 92 0.9 SSE 7 11 4 6 1013.5 - 45.8
15/09:30pm 24.6 28.5 23.0 91 1.1 SE 7 11 4 6 1013.6 - 45.6
15/09:00pm 24.3 28.4 23.3 94 0.7 SSE 7 11 4 6 1013.4 1013.3 45.4
15/08:30pm 24.6 27.6 22.0 85 1.7 SE 9 17 5 9 1013.2 - 45.0
15/08:00pm 24.4 28.3 22.9 91 1.0 E 7 11 4 6 1012.8 - 45.0
15/07:30pm 24.8 28.1 23.2 91 1.1 ESE 11 15 6 8 1012.3 - 44.8
15/07:20pm 24.5 28.8 23.6 95 0.6 E 7 11 4 6 1012.2 - 44.8
15/07:12pm 24.4 28.6 23.5 95 0.6 ESE 7 11 4 6 1012.1 - 44.8
15/07:00pm 24.4 27.9 23.5 95 0.6 ESE 11 17 6 9 1012.1 - 44.8
15/06:46pm 24.7 26.2 23.7 94 0.7 E 22 30 12 16 1011.9 - 43.4
15/06:40pm 25.4 29.5 23.2 88 1.5 SSE 7 11 4 6 1011.8 - 43.0
15/06:30pm 25.4 29.5 23.3 88 1.4 SSE 7 9 4 5 1011.6 - 43.0
15/06:00pm 25.4 29.1 23.3 88 1.4 ESE 9 15 5 8 - 1011.3 43.0
15/05:30pm 25.5 28.6 22.8 85 1.8 ESE 11 20 6 11 1011.1 - 43.0
15/05:00pm 25.4 27.9 23.2 88 1.5 ESE 15 19 8 10 1010.8 - 43.0
15/04:30pm 25.5 28.9 23.4 88 1.4 ESE 11 15 6 8 1010.6 - 43.0
15/04:00pm 25.5 28.2 23.4 88 1.4 ESE 15 20 8 11 1010.4 - 43.0
15/03:38pm 25.8 29.2 24.1 90 1.2 E 13 17 7 9 1010.4 - 43.0
15/03:30pm 25.8 29.5 23.9 89 1.3 ESE 11 17 6 9 1010.2 - 43.0
15/03:00pm 26.3 29.7 24.6 90 1.2 ESE 15 22 8 12 1010.4 1010.3 43.0
15/02:30pm 26.4 30.0 24.4 89 1.4 ESE 13 20 7 11 1010.7 - 43.0
15/02:11pm 25.9 30.2 24.3 91 1.1 ESE 9 13 5 7 1011.0 - 43.0
15/02:09pm 26.0 30.4 24.4 91 1.1 ESE 9 13 5 7 1011.0 - 43.0
15/02:00pm 25.6 29.7 24.0 91 1.1 ESE 9 15 5 8 1011.1 - 43.0
15/01:35pm 25.4 29.8 24.5 95 0.6 SE 9 13 5 7 1011.4 - 43.0
15/01:30pm 25.2 29.1 24.2 94 0.7 SE 11 15 6 8 1011.4 - 43.0
15/01:20pm 25.0 28.8 24.0 94 0.7 SSE 11 17 6 9 1011.4 - 43.0
15/01:14pm 25.0 28.6 23.8 93 0.8 SE 11 17 6 9 1011.6 - 42.6
15/01:04pm 25.1 29.2 23.9 93 0.8 SSE 9 13 5 7 1011.6 - 42.6
15/01:00pm 25.1 29.2 23.9 93 0.8 SSE 9 13 5 7 1011.6 - 42.6
15/12:47pm 25.0 29.1 24.0 94 0.7 SSE 9 15 5 8 1011.8 - 42.6
15/12:30pm 25.0 28.8 24.0 94 0.7 S 11 13 6 7 1012.0 - 42.4
15/12:15pm 25.0 28.9 24.3 96 0.5 SSE 11 19 6 10 1012.3 - 42.4
15/12:12pm 25.1 29.1 24.4 96 0.5 SSE 11 19 6 10 1012.4 - 42.4
15/12:04pm 24.9 28.4 24.2 96 0.5 S 13 17 7 9 1012.4 - 42.4
15/12:00pm 24.7 28.0 23.8 95 0.6 S 13 17 7 9 1012.4 1012.3 42.4
15/11:54am 24.8 28.1 23.9 95 0.6 S 13 17 7 9 1012.5 - 42.2
15/11:30am 24.6 29.3 24.0 96 0.4 SE 6 11 3 6 1012.9 - 40.0
15/11:12am 24.4 28.8 23.8 96 0.4 SE 7 11 4 6 1013.1 - 38.4
15/11:00am 24.4 28.8 23.8 96 0.4 SSE 7 11 4 6 1013.3 - 35.2
15/10:30am 24.0 27.9 23.6 98 0.3 ESE 9 13 5 7 1013.6 - 28.2
15/10:00am 23.9 27.0 23.5 98 0.3 E 13 19 7 10 1013.7 - 10.6
15/09:46am 24.2 25.4 23.2 94 0.7 E 22 28 12 15 1013.4 - 1.4
15/09:30am 25.0 27.1 23.7 92 0.9 ENE 19 26 10 14 1013.1 - 0.0
15/09:17am 25.5 27.9 24.2 92 0.9 E 19 33 10 18 1013.0 - 0.0
15/09:00am 26.9 29.2 23.5 81 2.3 SE 17 24 9 13 1012.8 1012.7 0.0
15/08:41am 26.7 30.5 24.1 86 1.8 ESE 11 17 6 9 1012.6 - 0.0
15/08:30am 26.8 30.1 23.9 84 2.0 SE 13 20 7 11 1012.4 - 0.0
15/08:00am 26.4 30.9 23.9 86 1.7 SE 7 11 4 6 1012.1 - 0.0
15/07:42am 26.3 30.4 24.0 87 1.6 SE 9 13 5 7 1011.8 - 0.0
15/07:30am 26.2 29.8 23.7 86 1.7 SE 11 19 6 10 1011.6 - 0.0
15/07:00am 26.1 28.9 23.6 86 1.7 ESE 15 20 8 11 1011.4 - 0.0
15/06:30am 26.0 30.0 23.8 88 1.5 SE 9 13 5 7 1011.3 - 0.0
15/06:25am 26.1 30.5 23.8 87 1.6 SE 7 13 4 7 1011.2 - 0.0
15/06:00am 26.2 30.2 23.7 86 1.7 SSE 9 15 5 8 1011.0 1010.8 0.0
15/05:40am 26.1 30.1 23.8 87 1.6 ESE 9 15 5 8 1010.9 - 0.0
15/05:30am 26.0 30.0 23.7 87 1.6 SE 9 13 5 7 1010.7 - 0.0
15/05:23am 26.1 30.0 23.6 86 1.7 SE 9 13 5 7 1010.6 - 0.0
15/05:00am 25.8 29.6 24.1 90 1.2 ESE 11 17 6 9 1010.5 - 0.0
15/04:30am 26.2 30.3 23.9 87 1.6 ESE 9 13 5 7 1010.2 - 0.0
15/04:00am 26.1 29.9 24.1 89 1.4 ESE 11 17 6 9 1010.1 - 0.0
15/03:44am 26.2 29.6 24.0 88 1.5 ESE 13 22 7 12 1010.2 - 0.0
15/03:30am 26.3 29.7 24.0 87 1.6 ESE 13 19 7 10 1010.3 - 0.0
15/03:00am 26.4 29.7 23.9 86 1.7 ESE 13 17 7 9 1010.3 1010.2 0.0
15/02:30am 26.2 30.0 24.0 88 1.5 ESE 11 17 6 9 1010.1 - 0.0
15/02:26am 26.2 30.0 24.0 88 1.5 ESE 11 17 6 9 1010.1 - 0.0
15/02:02am 26.1 30.3 24.1 89 1.4 ESE 9 15 5 8 1010.4 - 0.0
15/02:00am 26.1 30.3 24.1 89 1.4 ESE 9 15 5 8 1010.4 - 0.0
15/01:58am 26.1 30.3 24.1 89 1.4 ESE 9 15 5 8 1010.4 - 0.0
15/01:30am 25.8 30.4 24.1 90 1.2 ESE 7 13 4 7 1010.6 - 0.0
15/01:00am 26.2 30.3 24.0 88 1.5 SE 9 15 5 8 1010.7 - 0.0
15/12:35am 26.0 30.4 23.8 88 1.5 SE 7 13 4 7 1010.8 - 0.0
15/12:30am 26.1 30.1 23.8 87 1.6 SE 9 13 5 7 1010.8 - 0.0
15/12:00am 26.0 29.3 23.8 88 1.5 ESE 13 17 7 9 1010.7 1010.6 0.0
 
Date/Time
EST
Temp
°C
App
Temp
°C
Dew
Point
Rel
Hum
%
Delta-T
°C
Wind Press
QNH
hPa
Press
MSL
hPa
Rain
since 9 am
mm
Dir
 
Spd
km/h
Gust
km/h
Spd
kts
Gust
kts
14/11:30pm 26.1 29.7 23.8 87 1.6 ESE 11 19 6 10 1011.2 - 0.0
14/11:00pm 25.9 29.1 23.7 88 1.5 ESE 13 20 7 11 1011.3 - 0.0
14/10:30pm 26.2 29.7 24.2 89 1.4 ESE 13 17 7 9 1011.3 - 0.0
14/10:00pm 26.2 30.8 24.2 89 1.4 SE 7 13 4 7 1011.5 - 0.0
14/09:39pm 26.2 30.8 24.2 89 1.4 ESE 7 9 4 5 1011.5 - 0.0
14/09:30pm 26.1 30.4 24.2 89 1.3 ESE 9 11 5 6 1011.4 - 0.0
14/09:28pm 26.2 30.5 24.2 89 1.4 ESE 9 13 5 7 1011.4 - 0.0
14/09:00pm 26.2 31.0 24.2 89 1.4 ESE 6 11 3 6 1011.3 1011.2 0.0
14/08:30pm 26.2 30.2 23.7 86 1.7 ESE 9 15 5 8 1010.9 - 0.0
14/08:00pm 26.5 30.0 23.6 84 2.0 ESE 11 15 6 8 1010.4 - 0.0
14/07:30pm 26.7 30.6 23.6 83 2.1 SE 9 17 5 9 1010.1 - 0.0
14/07:00pm 26.5 28.7 23.9 85 1.8 ESE 19 28 10 15 1009.3 - 0.0
14/06:30pm 26.3 29.4 24.1 88 1.5 E 15 20 8 11 1009.3 - 0.0
14/06:12pm 26.5 29.9 24.0 86 1.7 E 13 17 7 9 1009.1 - 0.0
14/06:02pm 26.7 29.6 23.9 84 1.9 E 15 19 8 10 1009.0 - 0.0
14/06:01pm 26.7 29.8 24.1 86 1.8 E 15 19 8 10 1009.0 - 0.0
14/06:00pm 26.5 30.0 24.2 87 1.6 E 13 19 7 10 1009.0 1008.9 0.0
14/05:30pm 26.9 30.8 24.3 86 1.8 E 11 13 6 7 1008.9 - 0.0
14/05:01pm 26.9 31.2 24.3 86 1.8 E 9 13 5 7 1008.6 - 0.0
14/05:00pm 26.9 31.3 24.4 86 1.7 E 9 13 5 7 1008.5 - 0.0
14/04:59pm 26.9 30.8 24.3 86 1.8 E 11 15 6 8 1008.5 - 0.0
14/04:30pm 27.0 30.6 24.3 85 1.9 E 13 20 7 11 1008.4 - 0.0
14/04:00pm 27.1 30.2 24.1 84 2.1 E 15 22 8 12 1008.0 - 0.0
14/03:30pm 27.2 29.6 24.2 84 2.1 E 19 24 10 13 1008.0 - 0.0
14/03:00pm 27.4 30.1 24.2 83 2.2 E 17 24 9 13 1007.8 1007.7 0.0
14/02:43pm 27.5 29.0 24.3 83 2.2 E 24 32 13 17 1007.9 - 0.0
14/02:38pm 27.5 29.2 24.0 81 2.4 E 22 32 12 17 1007.7 - 0.0
14/02:30pm 27.8 29.4 23.9 79 2.7 E 22 32 12 17 1007.9 - 0.0
14/02:23pm 27.8 29.5 24.0 80 2.6 ESE 22 32 12 17 1007.8 - 0.0
14/02:00pm 29.3 31.6 24.4 75 3.4 ESE 20 33 11 18 1007.9 - 0.0
14/01:30pm 29.7 31.6 23.5 69 4.3 ESE 19 30 10 16 1007.8 - 0.0
14/01:00pm 29.8 30.9 23.7 70 4.2 ESE 24 35 13 19 1008.0 - 0.0
14/12:30pm 29.7 31.3 24.5 73 3.6 ESE 24 33 13 18 1008.6 - 0.0
14/12:00pm 29.4 31.1 24.1 73 3.7 ESE 22 32 12 17 1009.2 1009.2 0.0
14/11:30am 29.3 31.0 24.0 73 3.7 ESE 22 30 12 16 1009.5 - 0.0
14/11:00am 29.0 31.5 24.7 77 3.0 ESE 20 26 11 14 1010.0 - 0.0
14/10:46am 29.0 31.8 25.2 80 2.7 E 20 30 11 16 1010.2 - 0.0
14/10:30am 28.8 31.4 24.9 79 2.7 E 20 32 11 17 1010.4 - 0.0
14/10:09am 28.2 30.7 24.8 82 2.4 E 20 30 11 16 1010.4 - 0.0
14/10:00am 28.4 32.2 24.7 80 2.6 ENE 13 22 7 12 1010.4 - 0.0
14/09:30am 29.2 35.0 25.2 79 2.8 ENE 4 9 2 5 1010.1 - 0.0
14/09:24am 28.9 35.0 25.1 80 2.7 NE 2 6 1 3 1010.1 - 0.0
14/09:00am 27.9 34.7 25.5 87 1.7 CALM 0 7 0 4 1010.1 1010.0 0.0
14/08:30am 25.8 32.2 24.9 95 0.6 CALM 0 0 0 0 1009.9 - 0.0
14/08:00am 24.9 30.9 24.2 96 0.5 CALM 0 0 0 0 1009.8 - 0.0
14/07:30am 24.5 30.3 23.9 96 0.4 CALM 0 0 0 0 1009.6 - 0.0
14/07:00am 24.1 29.8 23.7 98 0.3 CALM 0 0 0 0 1009.2 - 0.0
14/06:36am 23.6 29.0 23.2 98 0.3 CALM 0 0 0 0 1008.8 - 0.0
14/06:30am 23.4 28.7 23.0 98 0.3 CALM 0 0 0 0 1008.7 - 0.0
14/06:14am 23.3 28.5 22.9 98 0.3 CALM 0 0 0 0 1008.3 - 0.0
14/06:00am 23.5 28.8 23.1 98 0.3 CALM 0 0 0 0 1008.1 1007.9 0.0
14/05:40am 23.5 28.9 23.2 98 0.2 CALM 0 0 0 0 1007.8 - 0.0
14/05:31am 23.7 28.4 23.3 98 0.3 SW 4 7 2 4 1007.6 - 0.0
14/05:30am 23.7 28.4 23.3 98 0.3 SW 4 7 2 4 1007.6 - 0.0
14/05:16am 23.8 28.5 23.4 98 0.3 WSW 4 7 2 4 1007.4 - 0.0
14/05:00am 23.5 28.5 23.2 98 0.2 WSW 2 6 1 3 1007.5 - 0.0
14/04:52am 23.9 29.5 23.5 98 0.3 CALM 0 0 0 0 1007.4 - 0.0
14/04:30am 24.0 29.6 23.6 98 0.3 CALM 0 0 0 0 1007.3 - 0.0
14/04:29am 24.0 29.6 23.6 98 0.3 CALM 0 0 0 0 1007.3 - 0.0
14/04:00am 24.6 30.0 23.9 96 0.5 WSW 2 7 1 4 1007.3 - 0.0
14/03:30am 24.5 30.5 24.2 98 0.2 CALM 0 0 0 0 1007.4 - 0.0
14/03:22am 24.6 30.6 24.3 98 0.2 CALM 0 0 0 0 1007.3 - 0.0
14/03:02am 24.5 30.4 24.1 98 0.3 CALM 0 0 0 0 1007.4 - 0.0
14/03:00am 24.5 30.5 24.2 98 0.2 CALM 0 0 0 0 1007.4 1007.3 0.0
14/02:43am 24.9 30.4 24.6 98 0.2 S 4 6 2 3 1007.4 - 0.0
14/02:30am 24.8 30.9 24.4 98 0.3 CALM 0 0 0 0 1007.5 - 0.0
14/02:07am 24.7 30.3 24.3 98 0.3 S 2 7 1 4 1007.5 - 0.0
14/02:00am 24.8 29.8 24.5 98 0.2 S 6 7 3 4 1007.4 - 0.0
14/01:30am 25.1 31.4 24.7 98 0.3 CALM 0 0 0 0 1007.6 - 0.0
14/01:00am 25.4 30.5 25.0 98 0.3 SSW 7 9 4 5 1007.8 - 0.0
14/12:30am 25.0 31.2 24.6 98 0.3 CALM 0 0 0 0 1007.9 - 0.0
14/12:00am 25.6 31.7 25.0 96 0.4 NNW 2 6 1 3 1008.0 1007.9 0.0

Other Formats:

Comma delimited format used in spreadsheet applications
http://www.bom.gov.au/fwo/IDQ60801/IDQ60801.95283.axf

JavaScript Object Notation format (JSON) in row-major order
http://www.bom.gov.au/fwo/IDQ60801/IDQ60801.95283.json